Time;durP1;ratioP1;P1;durP2;ratioP2;P2;SDS_P1;SDS_P2;PMS_P1;PMS_P2;Temp;Humidity;BMP_temperature;BMP_pressure;BME280_temperature;BME280_humidity;BME280_pressure;Samples;Min_cycle;Max_cycle;Signal;HPM_P1;HPM_P2
2023/08/04 00:01:02;;;;;;;0.15;0.15;;;;;;;25.79;63.49;100648.06;5038185;28;20477;-88
2023/08/04 00:03:27;;;;;;;0.10;0.10;;;;;;;25.68;63.67;100649.25;5037811;28;20444;-89
2023/08/04 00:05:53;;;;;;;0.10;0.10;;;;;;;25.73;63.51;100652.22;5055082;28;20024;-90
2023/08/04 00:08:18;;;;;;;0.10;0.10;;;;;;;25.59;63.27;100634.38;5037973;28;20021;-88
2023/08/04 00:10:44;;;;;;;0.10;0.10;;;;;;;25.56;63.72;100634.72;5036848;28;20024;-89
2023/08/04 00:13:09;;;;;;;0.10;0.10;;;;;;;25.52;63.67;100630.75;5054693;28;20021;-89
2023/08/04 00:15:35;;;;;;;0.10;0.10;;;;;;;25.54;63.94;100648.13;5037648;28;20033;-88
2023/08/04 00:18:03;;;;;;;0.10;0.10;;;;;;;25.44;64.48;100642.22;5037623;28;20047;-89
2023/08/04 00:20:28;;;;;;;0.10;0.10;;;;;;;25.34;64.64;100644.22;5054905;28;20473;-89
2023/08/04 00:22:54;;;;;;;0.10;0.10;;;;;;;25.21;65.06;100634.19;5037882;28;20082;-87
2023/08/04 00:25:19;;;;;;;0.10;0.10;;;;;;;25.24;65.14;100641.78;5037695;28;20473;-88
2023/08/04 00:27:44;;;;;;;0.10;0.10;;;;;;;25.11;65.53;100630.91;5054239;28;20481;-88
2023/08/04 00:30:10;;;;;;;0.10;0.10;;;;;;;24.93;65.42;100601.13;5054022;28;20122;-90
2023/08/04 00:32:36;;;;;;;0.10;0.10;;;;;;;25.14;65.59;100631.38;5053974;28;20034;-88
2023/08/04 00:35:03;;;;;;;0.10;0.10;;;;;;;25.13;65.53;100632.38;5070908;28;20028;-89
2023/08/04 00:37:29;;;;;;;0.20;0.20;;;;;;;25.13;65.66;100640.31;5054523;28;20032;-88
2023/08/04 00:39:54;;;;;;;0.10;0.10;;;;;;;25.13;65.85;100642.13;5054123;28;20470;-90
2023/08/04 00:42:20;;;;;;;0.10;0.10;;;;;;;25.09;65.28;100622.31;5054318;28;20028;-88
2023/08/04 00:44:45;;;;;;;0.10;0.10;;;;;;;25.12;65.61;100640.50;5054008;28;20032;-88
2023/08/04 00:47:10;;;;;;;0.10;0.10;;;;;;;25.19;65.34;100646.78;5037203;28;20029;-87
2023/08/04 00:49:36;;;;;;;0.10;0.10;;;;;;;25.26;65.21;100645.06;5053795;28;20025;-88
2023/08/04 00:52:02;;;;;;;0.10;0.10;;;;;;;25.28;65.11;100648.41;5053602;28;20044;-89
2023/08/04 00:54:27;;;;;;;0.10;0.10;;;;;;;25.23;65.02;100639.31;5037174;28;20016;-88
2023/08/04 00:56:53;;;;;;;0.20;0.20;;;;;;;24.89;66.12;100606.78;5037102;28;20436;-89
2023/08/04 00:59:18;;;;;;;0.10;0.10;;;;;;;24.93;66.06;100601.13;5037008;28;20032;-89
2023/08/04 01:01:44;;;;;;;0.10;0.10;;;;;;;25.12;66.49;100627.25;5053369;28;20536;-88
2023/08/04 01:04:09;;;;;;;0.10;0.10;;;;;;;25.06;65.97;100625.28;5036941;28;20478;-89
2023/08/04 01:06:55;;;;;;;0.10;0.10;;;;;;;25.02;66.07;100619.50;5036999;28;20375;-89
2023/08/04 01:09:23;;;;;;;0.10;0.10;;;;;;;25.09;66.26;100632.91;5071552;28;20032;-90
2023/08/04 01:12:14;;;;;;;0.10;0.10;;;;;;;25.01;66.94;100620.47;5071333;28;20035;-88
2023/08/04 01:14:42;;;;;;;0.10;0.10;;;;;;;25.07;66.83;100634.88;5039259;28;20048;-90
2023/08/04 01:17:27;;;;;;;0.10;0.10;;;;;;;24.89;67.65;100616.53;5053203;28;20066;-88
2023/08/04 01:19:53;;;;;;;0.10;0.10;;;;;;;25.04;67.38;100632.56;5036966;28;20024;-90
2023/08/04 01:22:19;;;;;;;0.10;0.10;;;;;;;25.01;67.33;100627.59;5036342;28;20028;-88
2023/08/04 01:24:45;;;;;;;0.10;0.10;;;;;;;25.11;67.16;100638.84;5036677;28;20162;-88
2023/08/04 01:27:12;;;;;;;0.10;0.10;;;;;;;25.11;67.01;100636.19;5053260;28;20024;-89
2023/08/04 01:29:38;;;;;;;0.10;0.10;;;;;;;25.05;67.04;100627.09;5036501;28;20215;-89
2023/08/04 01:32:03;;;;;;;0.10;0.10;;;;;;;25.06;66.61;100623.44;5036297;28;20515;-89
2023/08/04 01:34:29;;;;;;;0.10;0.10;;;;;;;25.11;66.53;100634.38;5053202;28;20073;-89
2023/08/04 01:36:55;;;;;;;0.10;0.10;;;;;;;25.07;66.75;100629.56;5052983;28;20078;-89
2023/08/04 01:39:20;;;;;;;0.10;0.10;;;;;;;25.02;66.66;100619.50;5036219;28;20090;-89
2023/08/04 01:41:45;;;;;;;0.10;0.10;;;;;;;25.07;66.50;100614.53;5052724;28;20028;-89
2023/08/04 01:44:11;;;;;;;0.10;0.10;;;;;;;25.03;66.83;100622.97;5036390;28;20450;-88
2023/08/04 01:46:36;;;;;;;0.10;0.10;;;;;;;25.20;66.27;100635.19;5036185;28;20050;-89
2023/08/04 01:49:02;;;;;;;0.10;0.10;;;;;;;25.10;66.16;100634.53;5052768;28;20020;-88
2023/08/04 01:51:27;;;;;;;0.13;0.13;;;;;;;25.03;66.17;100622.97;5035956;28;20044;-89
2023/08/04 01:53:53;;;;;;;0.10;0.10;;;;;;;25.03;66.64;100637.03;5036318;28;20020;-88
2023/08/04 01:56:18;;;;;;;0.10;0.10;;;;;;;24.99;65.95;100632.22;5036193;28;20028;-89
2023/08/04 01:58:44;;;;;;;0.10;0.10;;;;;;;24.94;66.08;100639.81;5036066;28;20367;-89
2023/08/04 02:01:09;;;;;;;0.10;0.10;;;;;;;24.62;66.91;100607.13;5052412;28;20024;-89
2023/08/04 02:03:36;;;;;;;0.10;0.10;;;;;;;24.81;66.87;100635.06;5069332;28;20019;-89
2023/08/04 02:06:02;;;;;;;0.10;0.10;;;;;;;24.64;66.89;100631.59;5036511;28;20028;-88
2023/08/04 02:08:28;;;;;;;0.10;0.10;;;;;;;24.73;67.06;100635.88;5036282;28;20501;-89
2023/08/04 02:10:53;;;;;;;0.20;0.20;;;;;;;24.68;67.13;100635.56;5052677;28;20032;-88
2023/08/04 02:13:18;;;;;;;0.10;0.10;;;;;;;24.66;67.47;100637.53;5036142;28;20446;-89
2023/08/04 02:15:44;;;;;;;0.10;0.10;;;;;;;24.66;67.15;100636.72;5035490;28;20025;-89
2023/08/04 02:18:09;;;;;;;0.20;0.20;;;;;;;24.74;66.92;100637.53;5035927;28;20028;-88
2023/08/04 02:20:35;;;;;;;0.10;0.10;;;;;;;24.64;67.06;100628.13;5036029;28;20079;-90
2023/08/04 02:23:00;;;;;;;0.10;0.10;;;;;;;24.62;67.12;100620.34;5036051;28;20016;-88
2023/08/04 02:25:26;;;;;;;0.10;0.10;;;;;;;24.65;66.91;100627.94;5035754;28;20474;-91
2023/08/04 02:27:51;;;;;;;0.10;0.10;;;;;;;24.57;67.18;100634.06;5068958;28;20409;-89
2023/08/04 02:30:16;;;;;;;0.10;0.10;;;;;;;24.58;67.87;100640.16;5035672;28;20020;-88
2023/08/04 02:32:42;;;;;;;0.10;0.10;;;;;;;24.46;67.53;100628.28;5035882;28;20021;-90
2023/08/04 02:35:08;;;;;;;0.10;0.10;;;;;;;24.42;68.08;100627.78;5055136;28;20085;-88
2023/08/04 02:37:33;;;;;;;0.10;0.10;;;;;;;24.39;67.98;100622.84;5056406;28;20016;-90
2023/08/04 02:39:59;;;;;;;0.10;0.10;;;;;;;24.35;68.19;100625.97;5039621;28;20477;-88
2023/08/04 02:42:24;;;;;;;0.10;0.10;;;;;;;24.45;68.21;100650.44;5073016;28;20094;-89
2023/08/04 02:44:56;;;;;;;0.10;0.10;;;;;;;24.30;68.06;100637.84;5039318;28;20029;-89
2023/08/04 02:47:22;;;;;;;0.20;0.20;;;;;;;24.38;68.46;100652.06;5039471;28;20024;-89
2023/08/04 02:49:47;;;;;;;0.10;0.10;;;;;;;24.29;68.38;100645.94;5039606;28;20394;-88
2023/08/04 02:52:16;;;;;;;0.10;0.10;;;;;;;24.23;68.76;100641.28;5039386;28;20044;-88
2023/08/04 02:54:42;;;;;;;0.10;0.10;;;;;;;24.10;69.01;100631.19;5040314;28;20074;-88
2023/08/04 02:57:07;;;;;;;0.10;0.10;;;;;;;24.24;68.65;100649.06;5056146;28;20107;-90
2023/08/04 02:59:32;;;;;;;0.10;0.10;;;;;;;24.34;68.16;100656.03;5039656;28;20031;-90
2023/08/04 03:01:58;;;;;;;0.10;0.10;;;;;;;24.30;67.99;100637.84;5039823;28;20025;-91
2023/08/04 03:04:23;;;;;;;0.10;0.10;;;;;;;24.33;68.09;100643.81;5039966;28;20023;-90
2023/08/04 03:06:49;;;;;;;0.10;0.10;;;;;;;24.38;67.88;100652.06;5033745;28;20498;-91
2023/08/04 03:09:14;;;;;;;0.10;0.10;;;;;;;24.33;68.46;100652.56;5039521;28;20024;-90
2023/08/04 03:11:40;;;;;;;0.10;0.10;;;;;;;24.38;67.66;100641.50;5039093;28;20025;-90
2023/08/04 03:14:05;;;;;;;0.10;0.10;;;;;;;24.34;68.21;100648.09;5056043;28;20028;-90
2023/08/04 03:16:31;;;;;;;0.10;0.10;;;;;;;24.29;68.37;100638.00;5039554;28;20051;-91
2023/08/04 03:18:56;;;;;;;0.10;0.10;;;;;;;24.24;68.11;100648.22;5039410;28;20070;-91
2023/08/04 03:21:22;;;;;;;0.10;0.10;;;;;;;24.22;68.53;100645.75;5039284;28;20401;-90
2023/08/04 03:23:47;;;;;;;0.10;0.10;;;;;;;24.25;68.45;100650.69;5039315;28;20020;-90
2023/08/04 03:26:13;;;;;;;0.10;0.10;;;;;;;24.10;68.73;100639.13;5038892;28;20020;-92
2023/08/04 03:28:38;;;;;;;0.10;0.10;;;;;;;24.10;69.09;100641.78;5055677;28;20020;-90
2023/08/04 03:31:03;;;;;;;0.20;0.20;;;;;;;24.00;69.49;100628.69;5055784;28;20497;-92
2023/08/04 03:33:29;;;;;;;0.10;0.10;;;;;;;24.23;69.03;100657.97;5055777;28;20025;-89
2023/08/04 03:35:54;;;;;;;0.10;0.10;;;;;;;24.17;68.83;100655.97;5055985;28;20029;-92
2023/08/04 03:38:20;;;;;;;0.10;0.10;;;;;;;24.27;68.52;100653.19;5039051;28;20555;-93
2023/08/04 03:40:45;;;;;;;0.17;0.17;;;;;;;24.25;68.57;100648.06;5039176;28;20020;-91
2023/08/04 03:43:11;;;;;;;0.10;0.10;;;;;;;24.40;67.94;100665.97;5039611;28;20020;-91
2023/08/04 03:45:36;;;;;;;0.20;0.20;;;;;;;24.34;67.87;100648.94;5039144;28;20393;-91
2023/08/04 03:48:02;;;;;;;0.10;0.10;;;;;;;24.44;67.66;100659.34;5039157;28;20028;-91
2023/08/04 03:50:27;;;;;;;0.10;0.10;;;;;;;24.52;67.21;100662.00;5055788;28;20024;-92
2023/08/04 03:52:53;;;;;;;0.10;0.10;;;;;;;24.64;66.98;100663.31;5039307;28;20028;-91
2023/08/04 03:55:18;;;;;;;0.10;0.10;;;;;;;24.64;66.79;100660.69;5039203;28;20021;-93
2023/08/04 03:57:44;;;;;;;0.10;0.10;;;;;;;24.71;66.43;100656.38;5039165;28;20086;-92
2023/08/04 04:00:09;;;;;;;0.10;0.10;;;;;;;24.58;66.73;100645.47;5039054;28;20103;-95
2023/08/04 04:02:35;;;;;;;0.20;0.20;;;;;;;24.63;66.85;100660.84;5039388;28;20034;-93
2023/08/04 04:05:01;;;;;;;0.10;0.10;;;;;;;24.83;65.88;100672.75;5039105;28;20029;-91
2023/08/04 04:07:26;;;;;;;0.10;0.10;;;;;;;25.07;65.06;100669.28;5013782;28;20046;-92
2023/08/04 04:09:52;;;;;;;0.10;0.10;;;;;;;24.99;65.64;100659.50;5037509;28;20393;-94
2023/08/04 04:12:17;;;;;;;0.10;0.10;;;;;;;24.96;65.38;100659.81;5037327;28;20025;-89
2023/08/04 04:14:43;;;;;;;0.10;0.10;;;;;;;25.01;65.17;100677.88;5053601;28;20039;-88
2023/08/04 04:17:09;;;;;;;0.10;0.10;;;;;;;25.03;64.64;100668.78;5070817;28;20027;-91
2023/08/04 04:19:34;;;;;;;0.10;0.10;;;;;;;25.02;64.64;100684.84;5047707;28;20052;-89
2023/08/04 04:22:00;;;;;;;0.10;0.10;;;;;;;24.78;65.25;100677.72;5067583;28;20036;-92
2023/08/04 04:24:25;;;;;;;0.10;0.10;;;;;;;24.63;65.60;100669.63;5053949;28;20029;-90
2023/08/04 04:26:51;;;;;;;0.20;0.20;;;;;;;24.40;66.36;100668.63;5037714;28;20486;-90
2023/08/04 04:29:16;;;;;;;0.20;0.20;;;;;;;24.16;67.57;100670.19;5073042;28;20029;-89
2023/08/04 04:31:42;;;;;;;0.10;0.10;;;;;;;23.65;69.85;100672.00;5058807;28;20016;-93
2023/08/04 04:34:07;;;;;;;0.10;0.10;;;;;;;23.31;71.53;100668.50;5058443;28;20020;-91
2023/08/04 04:36:33;;;;;;;0.10;0.10;;;;;;;23.17;72.44;100677.81;5049595;28;20016;-89
2023/08/04 04:38:59;;;;;;;0.20;0.20;;;;;;;23.26;72.99;100684.78;5062879;28;20032;-86
2023/08/04 04:41:27;;;;;;;0.10;0.10;;;;;;;23.41;71.58;100661.31;5063000;28;20513;-88
2023/08/04 04:43:52;;;;;;;0.10;0.10;;;;;;;23.27;72.96;100675.06;5042971;28;20028;-89
2023/08/04 04:46:18;;;;;;;0.10;0.10;;;;;;;23.40;72.81;100681.59;5052998;28;20029;-94
2023/08/04 04:48:43;;;;;;;0.10;0.10;;;;;;;23.60;71.93;100674.31;5056129;28;20409;-89
2023/08/04 04:51:09;;;;;;;0.10;0.10;;;;;;;23.52;72.63;100682.16;5057086;28;20051;-92
2023/08/04 04:53:34;;;;;;;0.10;0.10;;;;;;;23.81;71.76;100684.44;5072358;28;20027;-86
2023/08/04 04:56:00;;;;;;;0.10;0.10;;;;;;;24.03;71.33;100689.16;5072263;28;20025;-90
2023/08/04 04:58:26;;;;;;;0.10;0.10;;;;;;;24.23;70.38;100697.63;5075256;28;20028;-91
2023/08/04 05:00:51;;;;;;;0.10;0.10;;;;;;;24.18;70.71;100697.25;5064793;28;20085;-88
2023/08/04 05:03:17;;;;;;;0.10;0.10;;;;;;;24.07;71.58;100705.50;5054202;28;20440;-93
2023/08/04 05:05:43;;;;;;;0.10;0.10;;;;;;;24.27;71.51;100712.16;5024742;28;20101;-92
2023/08/04 05:08:09;;;;;;;0.10;0.10;;;;;;;24.30;70.82;100706.56;5069018;28;20036;-87
2023/08/04 05:10:34;;;;;;;0.10;0.10;;;;;;;24.28;71.33;100708.53;5036757;28;20086;-93
2023/08/04 05:13:00;;;;;;;0.10;0.10;;;;;;;24.37;71.12;100713.88;5057107;28;20041;-87
2023/08/04 05:15:25;;;;;;;0.10;0.10;;;;;;;24.55;70.41;100711.91;5033943;28;20523;-90
2023/08/04 05:17:51;;;;;;;0.20;0.20;;;;;;;24.49;71.02;100705.47;5045669;28;20512;-90
2023/08/04 05:20:16;;;;;;;0.10;0.10;;;;;;;24.56;70.75;100706.47;5040741;28;20036;-86
2023/08/04 05:22:43;;;;;;;0.13;0.13;;;;;;;24.78;70.10;100714.78;5035115;28;20068;-91
2023/08/04 05:25:08;;;;;;;0.17;0.17;;;;;;;24.69;70.60;100710.47;5054452;28;20024;-91
2023/08/04 05:27:34;;;;;;;0.10;0.10;;;;;;;24.83;70.32;100707.97;5089520;28;20486;-88
2023/08/04 05:30:02;;;;;;;0.20;0.20;;;;;;;25.10;68.72;100708.66;5048987;28;20398;-92
2023/08/04 05:32:34;;;;;;;0.10;0.10;;;;;;;24.96;69.76;100693.41;5064594;28;20031;-92
2023/08/04 05:34:59;;;;;;;0.10;0.10;;;;;;;25.07;69.00;100683.38;5059559;28;20028;-89
2023/08/04 05:37:25;;;;;;;0.10;0.10;;;;;;;25.38;68.30;100709.94;5087453;28;20199;-92
2023/08/04 05:39:50;;;;;;;0.10;0.10;;;;;;;25.31;69.21;100716.91;5056852;28;20036;-92
2023/08/04 05:42:16;;;;;;;0.10;0.10;;;;;;;25.36;68.99;100709.25;5047124;28;20475;-93
2023/08/04 05:44:41;;;;;;;0.10;0.10;;;;;;;25.64;67.26;100720.28;5047801;28;20028;-88
2023/08/04 05:47:06;;;;;;;0.10;0.10;;;;;;;25.58;68.36;100717.50;5051012;28;20032;-89
2023/08/04 05:49:32;;;;;;;0.20;0.20;;;;;;;25.68;67.79;100723.44;5051867;28;20028;-88
2023/08/04 05:51:58;;;;;;;0.10;0.10;;;;;;;25.83;67.19;100724.38;5046789;28;20580;-88
2023/08/04 05:54:24;;;;;;;0.20;0.20;;;;;;;25.73;67.69;100721.13;5068213;28;20405;-93
2023/08/04 05:56:49;;;;;;;0.10;0.10;;;;;;;25.98;66.75;100725.34;5073974;28;20027;-91
2023/08/04 05:59:14;;;;;;;0.20;0.20;;;;;;;26.05;67.02;100719.31;5086860;28;20013;-92
2023/08/04 06:01:40;;;;;;;0.10;0.10;;;;;;;25.94;65.90;100718.69;5044873;28;20024;-91
2023/08/04 06:04:05;;;;;;;0.10;0.10;;;;;;;26.23;65.85;100720.72;5056730;28;20032;-95
2023/08/04 06:06:31;;;;;;;0.10;0.10;;;;;;;26.35;65.92;100730.91;5038124;28;20040;-89
2023/08/04 06:08:56;;;;;;;0.20;0.20;;;;;;;26.36;65.92;100717.50;5070896;28;20036;-87
2023/08/04 06:11:22;;;;;;;0.20;0.20;;;;;;;26.62;64.79;100721.66;5039496;28;20493;-93
2023/08/04 06:13:47;;;;;;;0.10;0.10;;;;;;;26.47;64.11;100709.16;5040323;28;20045;-92
2023/08/04 06:16:13;;;;;;;0.20;0.20;;;;;;;26.81;63.56;100726.50;5041239;28;20028;-89
2023/08/04 06:18:38;;;;;;;0.10;0.10;;;;;;;26.81;62.96;100721.19;5058660;28;20031;-94
2023/08/04 06:21:04;;;;;;;0.20;0.20;;;;;;;26.84;61.41;100726.13;5042176;28;20497;-91
2023/08/04 06:23:30;;;;;;;0.10;0.10;;;;;;;26.98;61.37;100717.38;5062045;28;20040;-92
2023/08/04 06:25:55;;;;;;;0.17;0.17;;;;;;;27.01;59.88;100717.03;5056125;28;20033;-94
2023/08/04 06:28:20;;;;;;;0.10;0.10;;;;;;;27.03;61.34;100714.22;5054176;28;20020;-90
2023/08/04 06:30:46;;;;;;;0.20;0.20;;;;;;;27.17;60.46;100707.31;5053695;28;20036;-90
2023/08/04 06:33:11;;;;;;;0.20;0.20;;;;;;;27.18;59.56;100707.13;5078408;28;20020;-94
2023/08/04 06:35:41;;;;;;;0.10;0.10;;;;;;;27.14;60.11;100722.59;5094353;28;20513;-93
2023/08/04 06:38:06;;;;;;;0.13;0.13;;;;;;;27.01;60.50;100706.41;5069045;28;20035;-93
2023/08/04 06:40:32;;;;;;;0.20;0.20;;;;;;;27.22;60.73;100712.88;5062375;28;20091;-92
2023/08/04 06:42:57;;;;;;;0.10;0.10;;;;;;;27.42;60.39;100717.47;5048542;28;20501;-92
2023/08/04 06:45:23;;;;;;;0.10;0.10;;;;;;;27.40;60.58;100716.84;5034068;28;20039;-93
2023/08/04 06:47:49;;;;;;;0.10;0.10;;;;;;;27.39;60.82;100709.88;5044172;28;20029;-93
2023/08/04 06:50:14;;;;;;;0.20;0.20;;;;;;;27.62;60.33;100711.63;5054030;28;20049;-91
2023/08/04 06:52:40;;;;;;;0.20;0.20;;;;;;;27.74;60.13;100707.53;5042678;28;20044;-91
2023/08/04 06:55:05;;;;;;;0.20;0.20;;;;;;;27.79;58.86;100715.75;5042478;28;20032;-91
2023/08/04 06:57:31;;;;;;;0.10;0.10;;;;;;;27.98;57.87;100704.56;5070731;28;20023;-89
2023/08/04 06:59:56;;;;;;;0.20;0.20;;;;;;;27.99;57.14;100711.50;5076829;28;20157;-90
2023/08/04 07:02:22;;;;;;;0.20;0.20;;;;;;;27.82;57.20;100704.75;5078642;28;20027;-92
2023/08/04 07:04:48;;;;;;;0.20;0.20;;;;;;;28.00;57.77;100715.81;5077541;28;20020;-92
2023/08/04 07:07:13;;;;;;;0.20;0.20;;;;;;;28.03;57.75;100706.66;5045181;28;21599;-94
2023/08/04 07:09:39;;;;;;;0.10;0.10;;;;;;;28.11;57.42;100714.50;5039404;28;20478;-88
2023/08/04 07:12:05;;;;;;;0.10;0.10;;;;;;;28.37;57.39;100710.53;5074345;28;20037;-90
2023/08/04 07:14:30;;;;;;;0.20;0.20;;;;;;;28.58;56.72;100707.88;5075922;28;20028;-93
2023/08/04 07:16:56;;;;;;;0.10;0.10;;;;;;;28.49;57.14;100691.22;5074895;28;20024;-90
2023/08/04 07:19:21;;;;;;;0.20;0.20;;;;;;;28.65;57.04;100695.47;5071675;28;20417;-89
2023/08/04 07:21:47;;;;;;;0.20;0.20;;;;;;;28.84;56.30;100716.09;5092844;28;20031;-92
2023/08/04 07:24:12;;;;;;;0.20;0.20;;;;;;;28.91;56.14;100704.69;5054159;28;20085;-94
2023/08/04 07:26:38;;;;;;;0.20;0.20;;;;;;;29.00;54.87;100708.88;5060927;28;20024;-93
2023/08/04 07:29:03;;;;;;;0.20;0.20;;;;;;;28.98;54.92;100708.25;5065226;28;20479;-93
2023/08/04 07:31:32;;;;;;;0.20;0.20;;;;;;;29.13;55.33;100704.47;5064540;28;20036;-93
2023/08/04 07:33:58;;;;;;;0.20;0.20;;;;;;;29.16;55.39;100697.13;5046279;28;20047;-92
2023/08/04 07:36:23;;;;;;;0.13;0.13;;;;;;;29.27;55.78;100693.91;5081726;28;20120;-91
2023/08/04 07:38:49;;;;;;;0.20;0.20;;;;;;;29.51;54.66;100716.63;5040050;28;20456;-90
2023/08/04 07:41:19;;;;;;;0.20;0.20;;;;;;;29.65;53.56;100697.03;5039238;28;20035;-89
2023/08/04 07:43:44;;;;;;;0.10;0.10;;;;;;;29.55;52.92;100680.56;5038896;28;20032;-89
2023/08/04 07:46:25;;;;;;;0.20;0.20;;;;;;;29.84;52.86;100706.13;5072050;28;20028;-89
2023/08/04 07:48:51;;;;;;;0.20;0.20;;;;;;;29.91;53.45;100702.47;5063098;28;20459;-87
2023/08/04 07:51:17;;;;;;;0.20;0.20;;;;;;;30.00;52.88;100705.78;5089805;28;20072;-93
2023/08/04 07:53:42;;;;;;;0.20;0.20;;;;;;;30.14;53.11;100712.00;5075240;28;20093;-90
2023/08/04 07:56:08;;;;;;;0.20;0.20;;;;;;;30.17;52.91;100690.25;5092812;28;20405;-90
2023/08/04 07:58:33;;;;;;;0.20;0.20;;;;;;;30.17;52.58;100695.59;5079599;28;20028;-92
2023/08/04 08:00:58;;;;;;;0.20;0.20;;;;;;;30.30;52.85;100708.16;5074984;28;20086;-90
2023/08/04 08:03:24;;;;;;;0.20;0.20;;;;;;;30.37;53.00;100712.47;5076105;28;20054;-91
2023/08/04 08:05:49;;;;;;;0.20;0.20;;;;;;;30.50;52.42;100707.16;5024089;28;20078;-94
2023/08/04 08:08:16;;;;;;;0.20;0.20;;;;;;;30.50;51.80;100707.16;5046247;28;20035;-90
2023/08/04 08:10:42;;;;;;;0.20;0.20;;;;;;;30.53;51.51;100698.75;5090885;28;20489;-89
2023/08/04 08:13:07;;;;;;;0.20;0.20;;;;;;;30.80;51.62;100690.78;5057636;28;20020;-91
2023/08/04 08:15:33;;;;;;;0.20;0.20;;;;;;;31.02;49.85;100686.84;5073698;28;20039;-90
2023/08/04 08:17:59;;;;;;;0.20;0.20;;;;;;;31.24;49.93;100683.97;5067836;28;20036;-90
2023/08/04 08:20:24;;;;;;;0.20;0.20;;;;;;;31.28;48.27;100678.00;5058766;28;20028;-91
2023/08/04 08:22:50;;;;;;;0.20;0.20;;;;;;;31.59;47.29;100696.00;5057999;28;20024;-89
2023/08/04 08:25:15;;;;;;;0.20;0.20;;;;;;;31.75;46.86;100691.22;5073672;28;20032;-93
2023/08/04 08:27:41;;;;;;;0.20;0.20;;;;;;;31.82;46.27;100678.66;5074096;28;20100;-87
2023/08/04 08:30:07;;;;;;;0.20;0.20;;;;;;;31.87;46.88;100689.56;5090987;28;20035;-92
2023/08/04 08:32:32;;;;;;;0.20;0.20;;;;;;;32.15;45.93;100695.38;5076021;28;20028;-92
2023/08/04 08:34:57;;;;;;;0.20;0.20;;;;;;;32.24;45.18;100691.38;5076422;28;20031;-91
2023/08/04 08:37:23;;;;;;;0.20;0.20;;;;;;;32.44;46.50;100685.94;5073777;28;20032;-89
2023/08/04 08:39:48;;;;;;;0.20;0.20;;;;;;;32.59;45.89;100674.09;5073930;28;20489;-92
2023/08/04 08:42:14;;;;;;;0.20;0.20;;;;;;;32.85;44.59;100692.66;5058792;28;20016;-93
2023/08/04 08:44:59;;;;;;;0.20;0.20;;;;;;;32.85;45.62;100678.47;5074851;28;20031;-93
2023/08/04 08:47:28;;;;;;;0.20;0.20;;;;;;;32.89;46.08;100677.78;5060651;28;20036;-90
2023/08/04 08:49:55;;;;;;;0.20;0.20;;;;;;;33.06;45.92;100672.69;5040751;28;20040;-92
2023/08/04 08:52:20;;;;;;;0.20;0.20;;;;;;;33.17;44.42;100671.13;5040004;28;20056;-91
2023/08/04 08:54:46;;;;;;;0.20;0.20;;;;;;;33.26;43.37;100659.06;5054596;28;20082;-91
2023/08/04 08:57:11;;;;;;;0.20;0.20;;;;;;;33.25;43.91;100668.16;5038589;28;20028;-91
2023/08/04 08:59:37;;;;;;;0.20;0.20;;;;;;;33.32;43.80;100658.97;5038414;28;20048;-92
2023/08/04 09:02:02;;;;;;;0.20;0.20;;;;;;;33.54;43.64;100650.53;5038110;28;20028;-92
2023/08/04 09:04:32;;;;;;;0.20;0.20;;;;;;;33.67;43.28;100669.13;5054236;28;20426;-87
2023/08/04 09:06:58;;;;;;;0.20;0.20;;;;;;;33.55;44.70;100663.72;5037138;28;20049;-90
2023/08/04 09:09:23;;;;;;;0.20;0.20;;;;;;;33.86;43.00;100664.53;5083525;28;20039;-90
2023/08/04 09:11:49;;;;;;;0.20;0.20;;;;;;;33.72;42.97;100639.75;5074959;28;20042;-90
2023/08/04 09:14:14;;;;;;;0.20;0.20;;;;;;;33.71;43.36;100651.53;5063397;28;20043;-93
2023/08/04 09:16:39;;;;;;;0.20;0.20;;;;;;;34.02;43.30;100653.22;5076358;28;20482;-91
2023/08/04 09:19:08;;;;;;;0.20;0.20;;;;;;;34.20;42.28;100663.03;5056473;28;20551;-92
2023/08/04 09:21:34;;;;;;;0.20;0.20;;;;;;;34.12;42.49;100653.47;5075499;28;20028;-91
2023/08/04 09:24:00;;;;;;;0.22;0.22;;;;;;;34.26;42.47;100659.44;5089569;28;20047;-87
2023/08/04 09:26:29;;;;;;;0.22;0.22;;;;;;;34.13;42.57;100654.28;5053380;28;20990;-91
2023/08/04 09:29:04;;;;;;;0.20;0.20;;;;;;;34.00;42.77;100652.59;5063859;28;20069;-93
2023/08/04 09:31:37;;;;;;;0.20;0.20;;;;;;;34.21;42.18;100649.38;5073378;28;20028;-88
2023/08/04 09:34:05;;;;;;;0.20;0.20;;;;;;;34.09;42.51;100659.28;5042545;28;20036;-93
2023/08/04 09:36:31;;;;;;;0.20;0.20;;;;;;;34.19;41.78;100650.69;5042059;28;20114;-92
2023/08/04 09:39:04;;;;;;;0.20;0.20;;;;;;;34.32;41.47;100653.19;5036771;28;20972;-91
2023/08/04 09:41:32;;;;;;;0.20;0.20;;;;;;;33.94;41.30;100624.81;5037361;28;20486;-90
2023/08/04 09:43:57;;;;;;;0.30;0.30;;;;;;;34.18;41.25;100630.25;5068943;28;20032;-89
2023/08/04 09:46:23;;;;;;;0.30;0.30;;;;;;;34.44;40.29;100637.91;5056795;28;20505;-90
2023/08/04 09:48:48;;;;;;;0.20;0.20;;;;;;;34.63;40.96;100644.00;5071010;28;20025;-93
2023/08/04 09:51:15;;;;;;;0.20;0.20;;;;;;;34.91;39.40;100645.22;5035589;28;20186;-87
2023/08/04 09:53:51;;;;;;;0.20;0.20;;;;;;;34.75;38.96;100638.63;5056933;28;20020;-90
2023/08/04 09:56:18;;;;;;;0.20;0.20;;;;;;;34.91;38.54;100640.66;5044752;28;20040;-93
2023/08/04 09:58:44;;;;;;;0.25;0.25;;;;;;;35.16;37.67;100626.94;5051447;28;20027;-94
2023/08/04 10:01:10;;;;;;;0.22;0.22;;;;;;;35.28;38.36;100630.41;5059347;28;20515;-92
2023/08/04 10:03:43;;;;;;;0.20;0.20;;;;;;;35.34;37.50;100610.63;5057905;28;20024;-92
2023/08/04 10:06:09;;;;;;;0.20;0.20;;;;;;;35.46;37.23;100625.94;5042424;27;20024;-89
2023/08/04 10:08:39;;;;;;;0.20;0.20;;;;;;;35.56;38.09;100626.97;5056491;28;20020;-91
2023/08/04 10:11:04;;;;;;;0.30;0.30;;;;;;;35.62;37.27;100614.44;5073201;28;20028;-89
2023/08/04 10:13:32;;;;;;;0.20;0.20;;;;;;;35.63;37.26;100610.69;5058287;28;20501;-90
2023/08/04 10:15:58;;;;;;;0.30;0.30;;;;;;;35.89;36.78;100612.81;5036786;28;20516;-89
2023/08/04 10:18:25;;;;;;;0.25;0.25;;;;;;;35.85;36.56;100624.28;5070673;28;20035;-86
2023/08/04 10:20:51;;;;;;;0.30;0.30;;;;;;;35.94;35.90;100605.88;5081160;28;20112;-92
2023/08/04 10:23:17;;;;;;;0.30;0.30;;;;;;;36.10;35.36;100615.88;5050077;28;20032;-88
2023/08/04 10:25:58;;;;;;;0.30;0.30;;;;;;;36.26;35.96;100611.53;5073234;28;20050;-91
2023/08/04 10:28:24;;;;;;;0.30;0.30;;;;;;;36.44;35.52;100611.31;5073953;28;20433;-90
2023/08/04 10:31:13;;;;;;;0.30;0.30;;;;;;;36.35;35.93;100607.41;5072457;28;20028;-92
2023/08/04 10:33:39;;;;;;;0.30;0.30;;;;;;;36.40;35.81;100610.19;5068185;28;20097;-93
2023/08/04 10:36:08;;;;;;;0.30;0.30;;;;;;;36.57;34.82;100610.16;5035954;28;20482;-90
2023/08/04 10:38:44;;;;;;;0.30;0.30;;;;;;;36.81;35.20;100600.81;5068278;28;20031;-92
2023/08/04 10:41:10;;;;;;;0.30;0.30;;;;;;;36.74;33.75;100595.59;5068957;28;20128;-91
2023/08/04 10:43:38;;;;;;;0.30;0.30;;;;;;;37.01;34.56;100597.59;5050242;28;20029;-91
2023/08/04 10:46:09;;;;;;;0.30;0.30;;;;;;;36.83;34.60;100581.72;5061185;28;20060;-88
2023/08/04 10:48:35;;;;;;;;;;;;;;;37.05;34.37;100593.31;5054550;28;20031;-91
2023/08/04 10:51:03;;;;;;;0.30;0.30;;;;;;;36.70;34.59;100591.78;5053073;28;19916;-93
2023/08/04 10:53:29;;;;;;;0.30;0.30;;;;;;;36.90;34.27;100593.13;5070785;28;20034;-92
2023/08/04 10:55:56;;;;;;;0.30;0.30;;;;;;;36.89;34.20;100584.25;5056482;28;20024;-92
2023/08/04 10:58:26;;;;;;;0.30;0.30;;;;;;;37.08;33.46;100579.34;5053254;28;20032;-91
2023/08/04 11:00:52;;;;;;;0.30;0.30;;;;;;;37.27;33.28;100560.97;5060565;28;20399;-89
2023/08/04 11:03:27;;;;;;;0.28;0.28;;;;;;;37.38;33.84;100573.53;5075912;28;20020;-90
2023/08/04 11:05:52;;;;;;;0.30;0.30;;;;;;;37.49;32.65;100567.16;5046102;28;20509;-92
2023/08/04 11:08:19;;;;;;;0.30;0.30;;;;;;;37.38;32.76;100551.13;5027468;28;20053;-90
2023/08/04 11:10:48;;;;;;;0.30;0.30;;;;;;;37.57;31.57;100541.59;5080701;28;20020;-92
2023/08/04 11:13:17;;;;;;;0.30;0.30;;;;;;;37.50;32.19;100554.47;5074722;28;20032;-92
2023/08/04 11:15:43;;;;;;;0.30;0.30;;;;;;;37.60;32.61;100527.59;5052333;28;20033;-89
2023/08/04 11:18:30;;;;;;;0.30;0.30;;;;;;;37.86;32.07;100552.97;5061103;28;20508;-89
2023/08/04 11:21:01;;;;;;;0.30;0.30;;;;;;;37.85;31.49;100552.13;5072185;28;20028;-89